Time;durP1;ratioP1;P1;durP2;ratioP2;P2;SDS_P1;SDS_P2;PMS_P1;PMS_P2;Temp;Humidity;BMP_temperature;BMP_pressure;BME280_temperature;BME280_humidity;BME280_pressure;Samples;Min_cycle;Max_cycle;Signal;HPM_P1;HPM_P2
2023/11/23 00:02:20;;;;;;;2.10;0.70;;;;;;;;;;6282120;28;20556;-69
2023/11/23 00:05:24;;;;;;;2.80;0.77;;;;;;;;;;6281428;28;20303;-71
2023/11/23 00:08:28;;;;;;;0.73;0.70;;;;;;;;;;6281486;28;20322;-69
2023/11/23 00:11:31;;;;;;;1.25;0.80;;;;;;;;;;6263926;28;20476;-70
2023/11/23 00:14:36;;;;;;;0.88;0.88;;;;;;;;;;6281572;28;20295;-70
2023/11/23 00:17:40;;;;;;;0.82;0.80;;;;;;;;;;6281598;28;20294;-70
2023/11/23 00:20:45;;;;;;;0.85;0.70;;;;;;;;;;6282079;28;20515;-69
2023/11/23 00:23:48;;;;;;;0.77;0.77;;;;;;;;;;6295794;28;20559;-69
2023/11/23 00:26:53;;;;;;;0.70;0.70;;;;;;;;;;6273123;28;20319;-70
2023/11/23 00:29:59;;;;;;;1.33;1.20;;;;;;;;;;6278784;28;20290;-71
2023/11/23 00:33:03;;;;;;;2.67;1.00;;;;;;;;;;6285238;28;20297;-69
2023/11/23 00:36:08;;;;;;;3.70;0.93;;;;;;;;;;6277822;28;20329;-70
2023/11/23 00:39:12;;;;;;;0.85;0.85;;;;;;;;;;6280583;28;20291;-71
2023/11/23 00:42:16;;;;;;;1.90;0.95;;;;;;;;;;6263399;28;20298;-71
2023/11/23 00:45:21;;;;;;;1.90;0.80;;;;;;;;;;6286283;28;20564;-70
2023/11/23 00:48:26;;;;;;;1.08;0.80;;;;;;;;;;6280235;28;20427;-70
2023/11/23 00:51:32;;;;;;;1.58;0.80;;;;;;;;;;6281096;28;20302;-70
2023/11/23 00:54:38;;;;;;;2.45;0.90;;;;;;;;;;6294373;28;20293;-70
2023/11/23 00:57:41;;;;;;;0.70;0.70;;;;;;;;;;6280555;28;20287;-70
2023/11/23 01:00:47;;;;;;;2.42;0.98;;;;;;;;;;6259979;28;20299;-69
2023/11/23 01:03:52;;;;;;;0.93;0.90;;;;;;;;;;6271506;28;20306;-69
2023/11/23 01:06:56;;;;;;;1.05;0.98;;;;;;;;;;6281025;28;20302;-70
2023/11/23 01:10:00;;;;;;;1.40;1.10;;;;;;;;;;6279988;28;20292;-70
2023/11/23 01:13:03;;;;;;;0.93;0.90;;;;;;;;;;6249768;28;20328;-70
2023/11/23 01:16:09;;;;;;;1.45;1.15;;;;;;;;;;6288964;28;20287;-69
2023/11/23 01:19:13;;;;;;;2.13;1.05;;;;;;;;;;6268071;28;20306;-70
2023/11/23 01:22:17;;;;;;;1.25;0.90;;;;;;;;;;6280712;28;20310;-69
2023/11/23 01:25:21;;;;;;;0.80;0.80;;;;;;;;;;6278684;28;20504;-69
2023/11/23 01:28:25;;;;;;;1.05;0.93;;;;;;;;;;6279922;28;20292;-70
2023/11/23 01:31:30;;;;;;;1.52;1.00;;;;;;;;;;6280592;28;20446;-69
2023/11/23 01:34:33;;;;;;;0.93;0.93;;;;;;;;;;6267460;28;20286;-69
2023/11/23 01:37:37;;;;;;;1.23;1.23;;;;;;;;;;6280222;28;20298;-70
2023/11/23 01:40:41;;;;;;;5.68;1.55;;;;;;;;;;6279779;28;20295;-70
2023/11/23 01:43:46;;;;;;;2.85;1.13;;;;;;;;;;6279413;28;20358;-68
2023/11/23 01:46:52;;;;;;;1.40;1.20;;;;;;;;;;6280011;28;20318;-70
2023/11/23 01:49:57;;;;;;;2.30;1.05;;;;;;;;;;6279732;28;20294;-70
2023/11/23 01:53:01;;;;;;;1.15;1.02;;;;;;;;;;6285159;28;20374;-70
2023/11/23 01:56:08;;;;;;;2.90;1.27;;;;;;;;;;6280622;28;20294;-69
2023/11/23 01:59:14;;;;;;;3.40;1.02;;;;;;;;;;6230564;28;20294;-72
2023/11/23 02:02:20;;;;;;;4.00;1.40;;;;;;;;;;6247507;28;20300;-70
2023/11/23 02:05:24;;;;;;;1.50;1.15;;;;;;;;;;6294695;28;20315;-71
2023/11/23 02:08:27;;;;;;;2.70;0.90;;;;;;;;;;6278653;28;20595;-69
2023/11/23 02:11:32;;;;;;;1.33;1.33;;;;;;;;;;6280670;28;20298;-70
2023/11/23 02:14:36;;;;;;;2.53;1.30;;;;;;;;;;6265749;28;20290;-70
2023/11/23 02:17:42;;;;;;;2.13;1.40;;;;;;;;;;6296631;28;20314;-70
2023/11/23 02:20:47;;;;;;;3.42;1.10;;;;;;;;;;6293031;28;20289;-70
2023/11/23 02:23:51;;;;;;;2.55;1.10;;;;;;;;;;6278111;28;20298;-71
2023/11/23 02:26:57;;;;;;;1.10;0.93;;;;;;;;;;6288098;28;20303;-69
2023/11/23 02:30:01;;;;;;;2.40;1.00;;;;;;;;;;6283593;28;20325;-70
2023/11/23 02:33:06;;;;;;;3.22;1.33;;;;;;;;;;6296092;28;20227;-69
2023/11/23 02:36:10;;;;;;;1.17;1.02;;;;;;;;;;6295049;28;20371;-69
2023/11/23 02:39:14;;;;;;;1.50;1.13;;;;;;;;;;6283382;28;20453;-71
2023/11/23 02:42:19;;;;;;;2.58;1.10;;;;;;;;;;6279765;28;20293;-69
2023/11/23 02:45:23;;;;;;;2.80;1.13;;;;;;;;;;6293088;28;20504;-72
2023/11/23 02:48:27;;;;;;;1.45;1.20;;;;;;;;;;6284141;28;20356;-70
2023/11/23 02:51:30;;;;;;;1.17;1.05;;;;;;;;;;6275680;28;20366;-71
2023/11/23 02:54:35;;;;;;;1.27;1.15;;;;;;;;;;6298793;28;20367;-71
2023/11/23 02:57:42;;;;;;;2.08;1.30;;;;;;;;;;6289957;28;20317;-70
2023/11/23 03:00:46;;;;;;;2.58;1.38;;;;;;;;;;6288503;28;20290;-71
2023/11/23 03:03:50;;;;;;;0.90;0.90;;;;;;;;;;6285836;28;20584;-70
2023/11/23 03:06:54;;;;;;;3.75;1.30;;;;;;;;;;6293748;28;20245;-69
2023/11/23 03:09:58;;;;;;;3.75;1.00;;;;;;;;;;6293097;28;20290;-72
2023/11/23 03:13:03;;;;;;;3.15;1.20;;;;;;;;;;6301830;28;20310;-70
2023/11/23 03:16:07;;;;;;;3.33;1.20;;;;;;;;;;6287443;28;20595;-70
2023/11/23 03:19:11;;;;;;;1.70;1.05;;;;;;;;;;6268675;28;20306;-71
2023/11/23 03:22:15;;;;;;;1.52;1.17;;;;;;;;;;6286337;28;20316;-70
2023/11/23 03:25:19;;;;;;;4.65;1.17;;;;;;;;;;6279674;28;20306;-70
2023/11/23 03:28:24;;;;;;;2.70;1.23;;;;;;;;;;6274245;28;20287;-70
2023/11/23 03:31:28;;;;;;;4.07;1.02;;;;;;;;;;6279896;28;20299;-70
2023/11/23 03:34:32;;;;;;;3.72;2.03;;;;;;;;;;6274444;28;20232;-70
2023/11/23 03:37:36;;;;;;;4.22;1.20;;;;;;;;;;6282862;28;20295;-70
2023/11/23 03:40:40;;;;;;;3.67;1.10;;;;;;;;;;6282650;28;20283;-70
2023/11/23 03:43:45;;;;;;;3.33;1.23;;;;;;;;;;6282661;28;20303;-70
2023/11/23 03:46:48;;;;;;;1.20;1.20;;;;;;;;;;6258359;28;20295;-69
2023/11/23 03:49:53;;;;;;;1.40;1.00;;;;;;;;;;6264710;28;20343;-69
2023/11/23 03:52:57;;;;;;;3.55;1.30;;;;;;;;;;6282713;28;20322;-69
2023/11/23 03:56:01;;;;;;;1.52;1.00;;;;;;;;;;6282967;28;20297;-69
2023/11/23 03:59:06;;;;;;;4.75;1.20;;;;;;;;;;6280796;28;20398;-70
2023/11/23 04:02:10;;;;;;;3.95;1.15;;;;;;;;;;6281879;28;20298;-69
2023/11/23 04:05:17;;;;;;;3.75;1.30;;;;;;;;;;6281562;28;20298;-72
2023/11/23 04:08:22;;;;;;;2.88;1.08;;;;;;;;;;6254456;28;20356;-70
2023/11/23 04:11:26;;;;;;;1.25;1.15;;;;;;;;;;6280165;28;20294;-70
2023/11/23 04:14:32;;;;;;;2.35;1.10;;;;;;;;;;6261986;28;20230;-70
2023/11/23 04:17:36;;;;;;;3.40;1.17;;;;;;;;;;6252134;28;20298;-70
2023/11/23 04:20:39;;;;;;;2.85;1.10;;;;;;;;;;6282024;28;20287;-69
2023/11/23 04:23:43;;;;;;;2.40;1.20;;;;;;;;;;6254422;28;20477;-70
2023/11/23 04:26:47;;;;;;;3.33;1.20;;;;;;;;;;6286285;28;20516;-69
2023/11/23 04:29:52;;;;;;;1.35;1.25;;;;;;;;;;6287171;28;20306;-69
2023/11/23 04:32:56;;;;;;;4.78;1.10;;;;;;;;;;6282138;28;20483;-71
2023/11/23 04:36:04;;;;;;;2.38;1.20;;;;;;;;;;6280646;28;20307;-70
2023/11/23 04:39:08;;;;;;;1.23;1.10;;;;;;;;;;6271082;28;20307;-71
2023/11/23 04:42:12;;;;;;;3.47;1.40;;;;;;;;;;6281386;28;20326;-70
2023/11/23 04:45:17;;;;;;;2.30;1.30;;;;;;;;;;6280940;28;20294;-71
2023/11/23 04:48:21;;;;;;;3.83;1.30;;;;;;;;;;6280427;28;20507;-69
2023/11/23 04:51:25;;;;;;;2.38;1.30;;;;;;;;;;6287106;28;20298;-71
2023/11/23 04:54:28;;;;;;;2.28;1.10;;;;;;;;;;6281137;28;20306;-71
2023/11/23 04:57:33;;;;;;;1.67;1.17;;;;;;;;;;6281073;28;20335;-69
2023/11/23 05:00:38;;;;;;;1.42;1.05;;;;;;;;;;6279662;28;20302;-70
2023/11/23 05:03:42;;;;;;;2.17;1.20;;;;;;;;;;6278972;28;20301;-69
2023/11/23 05:06:46;;;;;;;2.42;1.20;;;;;;;;;;6281138;28;20407;-70
2023/11/23 05:09:49;;;;;;;6.45;1.35;;;;;;;;;;6252890;28;20291;-70
2023/11/23 05:12:54;;;;;;;0.88;0.88;;;;;;;;;;6281140;28;20325;-70
2023/11/23 05:15:59;;;;;;;1.35;1.25;;;;;;;;;;6278662;28;20465;-71
2023/11/23 05:19:02;;;;;;;2.63;1.20;;;;;;;;;;6271239;28;20294;-70
2023/11/23 05:22:07;;;;;;;3.22;1.27;;;;;;;;;;6284467;28;20353;-71
2023/11/23 05:25:10;;;;;;;1.27;1.10;;;;;;;;;;6280772;28;20286;-69
2023/11/23 05:28:15;;;;;;;4.60;1.30;;;;;;;;;;6276348;28;20300;-71
2023/11/23 05:31:19;;;;;;;1.10;1.10;;;;;;;;;;6286631;28;20315;-71
2023/11/23 05:34:23;;;;;;;1.20;1.20;;;;;;;;;;6280513;28;20243;-71
2023/11/23 05:37:27;;;;;;;1.08;1.08;;;;;;;;;;6284469;28;20298;-72
2023/11/23 05:40:31;;;;;;;1.20;1.10;;;;;;;;;;6275981;28;20286;-70
2023/11/23 05:43:34;;;;;;;2.67;1.25;;;;;;;;;;6281327;28;20330;-70
2023/11/23 05:46:39;;;;;;;4.00;1.30;;;;;;;;;;6279213;28;20307;-71
2023/11/23 05:49:43;;;;;;;1.95;1.10;;;;;;;;;;6286024;28;20503;-72
2023/11/23 05:52:47;;;;;;;3.75;1.30;;;;;;;;;;6263470;28;20501;-70
2023/11/23 05:55:50;;;;;;;3.90;1.20;;;;;;;;;;6260581;28;20226;-69
2023/11/23 05:58:54;;;;;;;2.40;1.27;;;;;;;;;;6277999;28;20303;-70
2023/11/23 06:02:02;;;;;;;1.08;1.00;;;;;;;;;;6280220;28;20310;-73
2023/11/23 06:05:06;;;;;;;4.68;1.27;;;;;;;;;;6269854;28;20287;-68
2023/11/23 06:08:10;;;;;;;1.25;1.10;;;;;;;;;;6279064;28;20308;-71
2023/11/23 06:11:14;;;;;;;1.38;1.27;;;;;;;;;;6279495;28;20306;-68
2023/11/23 06:14:19;;;;;;;1.30;1.05;;;;;;;;;;6277248;28;20306;-67
2023/11/23 06:17:24;;;;;;;3.60;1.20;;;;;;;;;;6278899;28;20461;-69
2023/11/23 06:20:28;;;;;;;3.10;1.60;;;;;;;;;;6278789;28;20280;-68
2023/11/23 06:23:32;;;;;;;4.15;1.38;;;;;;;;;;6278812;28;20286;-69
2023/11/23 06:26:36;;;;;;;2.88;1.60;;;;;;;;;;6285019;28;20297;-69
2023/11/23 06:29:39;;;;;;;3.90;1.50;;;;;;;;;;6277962;28;20298;-68
2023/11/23 06:32:44;;;;;;;2.70;1.53;;;;;;;;;;6278271;28;20311;-68
2023/11/23 06:35:48;;;;;;;6.33;1.50;;;;;;;;;;6279128;28;20559;-68
2023/11/23 06:38:52;;;;;;;2.13;1.50;;;;;;;;;;6278604;28;20291;-69
2023/11/23 06:41:56;;;;;;;2.40;1.60;;;;;;;;;;6279290;28;20307;-69
2023/11/23 06:45:00;;;;;;;3.33;1.70;;;;;;;;;;6279205;28;20350;-69
2023/11/23 06:48:06;;;;;;;2.13;1.10;;;;;;;;;;6279009;28;20291;-69
2023/11/23 06:51:10;;;;;;;5.85;1.58;;;;;;;;;;6278724;28;20483;-68
2023/11/23 06:54:13;;;;;;;3.40;1.35;;;;;;;;;;6278349;28;20322;-68
2023/11/23 06:57:17;;;;;;;5.10;1.33;;;;;;;;;;6278462;28;20303;-68
2023/11/23 07:00:23;;;;;;;6.65;1.70;;;;;;;;;;6281462;28;20303;-70
2023/11/23 07:03:28;;;;;;;3.73;1.57;;;;;;;;;;6282715;28;20291;-68
2023/11/23 07:06:32;;;;;;;5.10;1.70;;;;;;;;;;6283338;28;20298;-69
2023/11/23 07:09:36;;;;;;;3.08;1.58;;;;;;;;;;6283724;28;20939;-68
2023/11/23 07:12:40;;;;;;;2.53;1.45;;;;;;;;;;6280273;28;20309;-69
2023/11/23 07:15:44;;;;;;;2.72;1.30;;;;;;;;;;6289708;28;20322;-69
2023/11/23 07:18:50;;;;;;;2.35;1.58;;;;;;;;;;6282301;28;20306;-69
2023/11/23 07:21:53;;;;;;;1.65;1.52;;;;;;;;;;6282762;28;20298;-69
2023/11/23 07:24:57;;;;;;;5.00;1.80;;;;;;;;;;6282733;28;20290;-69
2023/11/23 07:28:01;;;;;;;3.67;1.45;;;;;;;;;;6281920;28;20294;-71
2023/11/23 07:31:05;;;;;;;4.65;1.60;;;;;;;;;;6282693;28;20321;-71
2023/11/23 07:34:10;;;;;;;4.40;1.33;;;;;;;;;;6282617;28;20295;-69
2023/11/23 07:37:14;;;;;;;3.15;1.33;;;;;;;;;;6282658;28;20307;-70
2023/11/23 07:40:18;;;;;;;4.75;1.58;;;;;;;;;;6281952;28;20302;-70
2023/11/23 07:43:22;;;;;;;5.85;1.90;;;;;;;;;;6254989;28;20471;-70
2023/11/23 07:46:26;;;;;;;6.75;1.95;;;;;;;;;;6282802;28;20306;-70
2023/11/23 07:49:31;;;;;;;5.05;1.67;;;;;;;;;;6281860;28;20303;-68
2023/11/23 07:52:34;;;;;;;3.65;1.75;;;;;;;;;;6281119;28;20310;-68
2023/11/23 07:55:38;;;;;;;2.95;1.83;;;;;;;;;;6281658;28;20371;-71
2023/11/23 07:58:43;;;;;;;10.82;2.05;;;;;;;;;;6280047;28;20290;-69
2023/11/23 08:01:47;;;;;;;4.70;2.08;;;;;;;;;;6282154;28;20295;-69
2023/11/23 08:04:52;;;;;;;6.40;1.70;;;;;;;;;;6244762;28;20239;-70
2023/11/23 08:07:56;;;;;;;6.80;1.70;;;;;;;;;;6257185;28;20291;-69
2023/11/23 08:11:00;;;;;;;5.75;1.85;;;;;;;;;;6249192;28;20588;-69
2023/11/23 08:14:04;;;;;;;2.97;1.77;;;;;;;;;;6256960;28;20295;-69
2023/11/23 08:17:08;;;;;;;8.15;1.88;;;;;;;;;;6256631;28;20319;-69
2023/11/23 08:20:14;;;;;;;7.15;2.70;;;;;;;;;;6254639;28;20632;-69
2023/11/23 08:23:18;;;;;;;13.43;2.67;;;;;;;;;;6264120;28;20295;-69
2023/11/23 08:26:22;;;;;;;5.47;2.35;;;;;;;;;;6256384;28;20318;-69
2023/11/23 08:29:28;;;;;;;15.85;2.55;;;;;;;;;;6256345;28;20299;-69
2023/11/23 08:32:31;;;;;;;8.93;2.22;;;;;;;;;;6255682;28;20287;-69
2023/11/23 08:35:37;;;;;;;6.13;2.10;;;;;;;;;;6256607;28;20299;-69
2023/11/23 08:38:40;;;;;;;4.50;2.15;;;;;;;;;;6256465;28;20462;-70
2023/11/23 08:41:44;;;;;;;9.05;2.28;;;;;;;;;;6255756;28;20295;-70
2023/11/23 08:44:48;;;;;;;2.17;1.98;;;;;;;;;;6256300;28;20311;-69
2023/11/23 08:47:52;;;;;;;7.97;2.15;;;;;;;;;;6256120;28;20318;-70
2023/11/23 08:50:57;;;;;;;7.03;2.13;;;;;;;;;;6255978;28;20291;-69
2023/11/23 08:54:05;;;;;;;8.52;2.30;;;;;;;;;;6255737;28;20460;-68
2023/11/23 08:57:09;;;;;;;7.00;2.42;;;;;;;;;;6256126;28;20749;-68
2023/11/23 09:00:16;;;;;;;6.22;2.17;;;;;;;;;;6253836;28;20487;-69
2023/11/23 09:03:20;;;;;;;4.90;1.90;;;;;;;;;;6253582;28;20303;-70
2023/11/23 09:06:25;;;;;;;9.77;1.98;;;;;;;;;;6279932;28;20290;-68
2023/11/23 09:09:29;;;;;;;6.65;1.80;;;;;;;;;;6280290;28;20452;-70
2023/11/23 09:12:33;;;;;;;9.60;1.70;;;;;;;;;;6279818;28;20303;-69
2023/11/23 09:15:37;;;;;;;5.25;2.30;;;;;;;;;;6279727;28;20611;-69
2023/11/23 09:18:42;;;;;;;3.72;1.80;;;;;;;;;;6263724;28;20359;-69
2023/11/23 09:21:48;;;;;;;6.82;2.08;;;;;;;;;;6279550;28;20516;-69
2023/11/23 09:24:52;;;;;;;8.02;1.70;;;;;;;;;;6279702;28;20467;-69
2023/11/23 09:27:58;;;;;;;5.22;2.15;;;;;;;;;;6276993;28;20306;-68
2023/11/23 09:31:02;;;;;;;7.10;1.90;;;;;;;;;;6287414;28;20236;-68
2023/11/23 09:34:06;;;;;;;8.13;2.40;;;;;;;;;;6254770;28;20502;-69
2023/11/23 09:37:11;;;;;;;7.18;1.92;;;;;;;;;;6263729;28;20299;-69
2023/11/23 09:40:18;;;;;;;9.40;2.00;;;;;;;;;;6279103;28;20575;-69
2023/11/23 09:43:22;;;;;;;4.15;2.25;;;;;;;;;;6279739;28;20392;-68
2023/11/23 09:46:26;;;;;;;9.40;2.08;;;;;;;;;;6279847;28;20322;-68
2023/11/23 09:49:30;;;;;;;5.70;1.95;;;;;;;;;;6279862;28;20302;-67
2023/11/23 09:52:36;;;;;;;8.13;2.30;;;;;;;;;;6271675;28;20563;-69
2023/11/23 09:55:40;;;;;;;6.88;2.50;;;;;;;;;;6255499;28;20292;-69
2023/11/23 09:58:44;;;;;;;13.25;2.03;;;;;;;;;;6273377;28;20319;-68
2023/11/23 10:01:52;;;;;;;11.00;2.60;;;;;;;;;;6279692;28;20299;-69
2023/11/23 10:04:58;;;;;;;11.90;3.25;;;;;;;;;;6278845;28;20387;-68
2023/11/23 10:08:04;;;;;;;7.10;2.88;;;;;;;;;;6269848;28;20295;-70
2023/11/23 10:11:07;;;;;;;5.93;2.63;;;;;;;;;;6279586;28;20291;-68
2023/11/23 10:14:11;;;;;;;12.10;2.35;;;;;;;;;;6278326;28;20295;-69
2023/11/23 10:17:15;;;;;;;3.63;1.50;;;;;;;;;;6279688;28;20710;-68
2023/11/23 10:20:19;;;;;;;3.92;1.95;;;;;;;;;;6279700;28;20290;-69
2023/11/23 10:23:24;;;;;;;5.75;2.05;;;;;;;;;;6279489;28;20294;-69
2023/11/23 10:26:28;;;;;;;7.75;1.95;;;;;;;;;;6279674;28;20322;-70
2023/11/23 10:29:32;;;;;;;7.40;2.05;;;;;;;;;;6278915;28;20295;-72
2023/11/23 10:32:36;;;;;;;2.95;2.17;;;;;;;;;;6280946;28;20290;-69
2023/11/23 10:35:42;;;;;;;6.35;1.45;;;;;;;;;;6284390;28;20718;-68
2023/11/23 10:38:48;;;;;;;4.07;1.48;;;;;;;;;;6283608;28;20302;-68
2023/11/23 10:41:53;;;;;;;3.63;1.63;;;;;;;;;;6283649;28;20299;-69
2023/11/23 10:44:57;;;;;;;2.35;1.30;;;;;;;;;;6283835;28;20326;-70
2023/11/23 10:48:01;;;;;;;5.90;1.50;;;;;;;;;;6298409;28;20580;-69
2023/11/23 10:51:06;;;;;;;5.80;1.83;;;;;;;;;;6283714;28;20296;-70
2023/11/23 10:54:12;;;;;;;3.25;1.58;;;;;;;;;;6282916;28;20307;-69
2023/11/23 10:57:16;;;;;;;3.92;1.20;;;;;;;;;;6283578;28;20726;-69
2023/11/23 11:00:24;;;;;;;2.65;1.50;;;;;;;;;;6280869;28;20299;-69
2023/11/23 11:03:29;;;;;;;6.55;1.42;;;;;;;;;;6264697;28;20607;-69
2023/11/23 11:06:39;;;;;;;4.63;1.20;;;;;;;;;;6283297;28;20374;-69
2023/11/23 11:09:46;;;;;;;2.78;1.50;;;;;;;;;;6280963;28;20290;-70
2023/11/23 11:12:51;;;;;;;2.63;1.20;;;;;;;;;;6275553;28;20291;-70
2023/11/23 11:15:57;;;;;;;5.60;1.80;;;;;;;;;;6284168;28;20298;-71
2023/11/23 11:19:05;;;;;;;4.78;1.75;;;;;;;;;;6283352;28;20314;-69
2023/11/23 11:22:13;;;;;;;5.25;1.80;;;;;;;;;;6283294;28;20283;-70
2023/11/23 11:25:18;;;;;;;1.80;1.35;;;;;;;;;;6297345;28;20295;-69
2023/11/23 11:28:23;;;;;;;5.47;1.73;;;;;;;;;;6282199;28;20291;-69
2023/11/23 11:31:33;;;;;;;2.45;1.27;;;;;;;;;;6282914;28;20306;-69
2023/11/23 11:34:37;;;;;;;1.20;1.10;;;;;;;;;;6287866;28;20294;-69
2023/11/23 11:37:42;;;;;;;2.42;1.30;;;;;;;;;;6282286;28;20603;-68
2023/11/23 11:40:49;;;;;;;3.17;1.20;;;;;;;;;;6282770;28;20363;-69
2023/11/23 11:43:53;;;;;;;0.98;0.98;;;;;;;;;;6279592;28;20413;-68
2023/11/23 11:46:57;;;;;;;1.52;1.10;;;;;;;;;;6290151;28;20818;-68
2023/11/23 11:50:01;;;;;;;5.18;1.10;;;;;;;;;;6263267;28;20387;-68
2023/11/23 11:53:06;;;;;;;1.42;1.20;;;;;;;;;;6264426;28;20299;-70
2023/11/23 11:56:13;;;;;;;1.23;1.00;;;;;;;;;;6282400;28;20304;-68
2023/11/23 11:59:18;;;;;;;0.95;0.90;;;;;;;;;;6280384;28;20394;-72
2023/11/23 12:02:21;;;;;;;0.85;0.85;;;;;;;;;;6282123;28;20374;-66
2023/11/23 12:05:25;;;;;;;3.75;1.10;;;;;;;;;;6282162;28;20298;-70
2023/11/23 12:08:34;;;;;;;1.25;0.93;;;;;;;;;;6280516;28;20299;-69
2023/11/23 12:11:39;;;;;;;1.70;0.90;;;;;;;;;;6281954;28;20298;-70
2023/11/23 12:14:45;;;;;;;4.35;1.13;;;;;;;;;;6281255;28;20298;-69
2023/11/23 12:17:49;;;;;;;0.85;0.85;;;;;;;;;;6281077;28;20326;-69
2023/11/23 12:20:54;;;;;;;1.25;1.17;;;;;;;;;;6281448;28;20286;-69
2023/11/23 12:24:00;;;;;;;1.80;0.80;;;;;;;;;;6281114;28;20302;-70
2023/11/23 12:27:07;;;;;;;2.40;0.80;;;;;;;;;;6287694;28;20298;-69
2023/11/23 12:30:15;;;;;;;4.30;1.10;;;;;;;;;;6280881;28;20294;-68
2023/11/23 12:33:19;;;;;;;1.65;0.82;;;;;;;;;;6262263;28;20639;-69
2023/11/23 12:36:23;;;;;;;0.88;0.88;;;;;;;;;;6281257;28;20303;-70
2023/11/23 12:39:28;;;;;;;0.80;0.80;;;;;;;;;;6280469;28;20306;-70
2023/11/23 12:42:33;;;;;;;2.67;1.08;;;;;;;;;;6280365;28;20299;-68
2023/11/23 12:45:37;;;;;;;1.80;0.90;;;;;;;;;;6280868;28;20291;-70
2023/11/23 12:48:41;;;;;;;1.33;1.00;;;;;;;;;;6262429;28;20491;-69
2023/11/23 12:51:45;;;;;;;0.90;0.90;;;;;;;;;;6280602;28;20303;-70
2023/11/23 12:54:49;;;;;;;0.80;0.80;;;;;;;;;;6285682;28;20298;-68
2023/11/23 12:57:54;;;;;;;0.80;0.80;;;;;;;;;;6279711;28;20295;-69
2023/11/23 13:00:58;;;;;;;1.98;0.80;;;;;;;;;;6279218;28;20287;-71
2023/11/23 13:04:02;;;;;;;1.50;1.10;;;;;;;;;;6279574;28;20338;-69
2023/11/23 13:07:11;;;;;;;4.07;1.00;;;;;;;;;;6262637;28;20492;-69
2023/11/23 13:10:16;;;;;;;1.05;0.80;;;;;;;;;;6280259;28;20311;-70
2023/11/23 13:13:21;;;;;;;1.10;0.90;;;;;;;;;;6278294;28;20599;-68
2023/11/23 13:16:25;;;;;;;1.73;1.08;;;;;;;;;;6280222;28;20302;-71
2023/11/23 13:19:30;;;;;;;0.80;0.80;;;;;;;;;;6279716;28;20303;-69
2023/11/23 13:22:45;;;;;;;1.42;0.85;;;;;;;;;;6279883;28;20295;-70
2023/11/23 13:25:49;;;;;;;2.47;0.73;;;;;;;;;;6295073;28;20491;-69
2023/11/23 13:28:57;;;;;;;0.90;0.90;;;;;;;;;;6279408;28;20791;-69
2023/11/23 13:32:01;;;;;;;1.98;0.95;;;;;;;;;;6280130;28;20495;-69
2023/11/23 13:35:06;;;;;;;3.42;1.27;;;;;;;;;;6279253;28;20473;-71
2023/11/23 13:38:10;;;;;;;2.47;0.80;;;;;;;;;;6278967;28;20291;-69
2023/11/23 13:41:15;;;;;;;0.70;0.70;;;;;;;;;;6284695;28;20294;-70
2023/11/23 13:44:20;;;;;;;0.70;0.70;;;;;;;;;;6251029;28;20306;-70
2023/11/23 13:47:28;;;;;;;0.95;0.80;;;;;;;;;;6279746;28;20435;-69
2023/11/23 13:50:33;;;;;;;0.80;0.80;;;;;;;;;;6279087;28;20319;-67
2023/11/23 13:53:38;;;;;;;0.98;0.98;;;;;;;;;;6272854;28;20291;-73
2023/11/23 13:56:42;;;;;;;0.80;0.80;;;;;;;;;;6279837;28;20286;-69
2023/11/23 13:59:49;;;;;;;0.70;0.70;;;;;;;;;;6276806;28;20633;-69
2023/11/23 14:02:53;;;;;;;0.82;0.82;;;;;;;;;;6279117;28;20485;-68
2023/11/23 14:05:58;;;;;;;2.05;0.93;;;;;;;;;;6269670;28;20303;-70
2023/11/23 14:09:03;;;;;;;0.70;0.70;;;;;;;;;;6262421;28;20428;-69
2023/11/23 14:12:07;;;;;;;0.77;0.77;;;;;;;;;;6278928;28;20379;-69
2023/11/23 14:15:17;;;;;;;0.77;0.77;;;;;;;;;;6278747;28;20488;-67
2023/11/23 14:18:22;;;;;;;0.90;0.90;;;;;;;;;;6277806;28;20283;-68
2023/11/23 14:21:25;;;;;;;0.80;0.80;;;;;;;;;;6279006;28;20303;-69
2023/11/23 14:24:32;;;;;;;1.00;0.88;;;;;;;;;;6251313;28;20294;-68
2023/11/23 14:27:37;;;;;;;0.73;0.73;;;;;;;;;;6278854;28;20295;-69
2023/11/23 14:30:43;;;;;;;0.88;0.80;;;;;;;;;;6278781;28;20311;-70
2023/11/23 14:33:47;;;;;;;0.60;0.60;;;;;;;;;;6278223;28;20310;-69
2023/11/23 14:36:52;;;;;;;1.33;1.23;;;;;;;;;;6278474;28;20318;-69
2023/11/23 14:39:59;;;;;;;0.60;0.60;;;;;;;;;;6277795;28;20451;-68
2023/11/23 14:43:03;;;;;;;0.75;0.75;;;;;;;;;;6278438;28;20530;-68
2023/11/23 14:46:08;;;;;;;0.73;0.73;;;;;;;;;;6270590;28;20497;-68
2023/11/23 14:49:12;;;;;;;0.70;0.70;;;;;;;;;;6278547;28;20588;-68
2023/11/23 14:52:19;;;;;;;1.90;0.82;;;;;;;;;;6278138;28;20298;-70
2023/11/23 14:55:23;;;;;;;1.00;0.80;;;;;;;;;;6278197;28;20275;-69
2023/11/23 14:58:27;;;;;;;0.70;0.70;;;;;;;;;;6278263;28;20315;-69
2023/11/23 15:01:35;;;;;;;0.68;0.68;;;;;;;;;;6276751;28;20291;-68
2023/11/23 15:04:39;;;;;;;2.55;0.88;;;;;;;;;;6278038;28;20383;-69
2023/11/23 15:07:42;;;;;;;0.80;0.80;;;;;;;;;;6277885;28;20622;-69
2023/11/23 15:10:46;;;;;;;1.30;0.90;;;;;;;;;;6278939;28;20302;-69
2023/11/23 15:13:50;;;;;;;0.70;0.70;;;;;;;;;;6277689;28;20227;-69
2023/11/23 15:16:55;;;;;;;1.30;0.80;;;;;;;;;;6278514;28;20298;-68
2023/11/23 15:19:59;;;;;;;0.70;0.70;;;;;;;;;;6285999;28;20239;-68
2023/11/23 15:23:07;;;;;;;0.50;0.50;;;;;;;;;;6282244;28;20302;-68
2023/11/23 15:26:11;;;;;;;0.70;0.70;;;;;;;;;;6283438;28;20291;-69
2023/11/23 15:29:15;;;;;;;1.85;0.70;;;;;;;;;;6287193;28;20601;-70
2023/11/23 15:32:20;;;;;;;1.25;0.88;;;;;;;;;;6283006;28;20294;-68
2023/11/23 15:35:24;;;;;;;0.70;0.70;;;;;;;;;;6281732;28;20600;-70
2023/11/23 15:38:27;;;;;;;0.80;0.80;;;;;;;;;;6281749;28;20310;-69
2023/11/23 15:41:31;;;;;;;0.93;0.70;;;;;;;;;;6279320;28;20291;-68
2023/11/23 15:44:35;;;;;;;0.80;0.80;;;;;;;;;;6289254;28;20290;-68
2023/11/23 15:47:40;;;;;;;0.70;0.70;;;;;;;;;;6281801;28;20298;-69
2023/11/23 15:50:44;;;;;;;2.60;0.90;;;;;;;;;;6282251;28;20318;-68
2023/11/23 15:53:49;;;;;;;0.80;0.80;;;;;;;;;;6281664;28;20294;-69
2023/11/23 15:56:53;;;;;;;0.60;0.60;;;;;;;;;;6297182;28;20603;-70
2023/11/23 15:59:57;;;;;;;2.72;0.85;;;;;;;;;;6270517;28;20327;-69
2023/11/23 16:03:02;;;;;;;0.88;0.70;;;;;;;;;;6281060;28;20282;-70
2023/11/23 16:06:07;;;;;;;1.20;0.80;;;;;;;;;;6271459;28;20298;-69
2023/11/23 16:09:11;;;;;;;1.00;1.00;;;;;;;;;;6280793;28;20290;-69
2023/11/23 16:12:15;;;;;;;0.90;0.90;;;;;;;;;;6279580;28;20626;-68
2023/11/23 16:15:21;;;;;;;0.90;0.90;;;;;;;;;;6288031;28;20452;-70
2023/11/23 16:18:28;;;;;;;1.10;1.08;;;;;;;;;;6280897;28;20290;-68
2023/11/23 16:21:32;;;;;;;1.00;1.00;;;;;;;;;;6281423;28;20307;-69
2023/11/23 16:24:36;;;;;;;0.82;0.82;;;;;;;;;;6281133;28;20290;-68
2023/11/23 16:27:40;;;;;;;0.93;0.93;;;;;;;;;;6280619;28;20291;-68
2023/11/23 16:30:43;;;;;;;0.93;0.80;;;;;;;;;;6280914;28;20287;-71
2023/11/23 16:33:49;;;;;;;1.10;1.08;;;;;;;;;;6280620;28;20583;-69
2023/11/23 16:36:53;;;;;;;1.05;0.88;;;;;;;;;;6281468;28;20302;-70
2023/11/23 16:39:58;;;;;;;1.00;1.00;;;;;;;;;;6261798;28;20492;-69
2023/11/23 16:43:02;;;;;;;3.80;1.05;;;;;;;;;;6280352;28;20291;-69
2023/11/23 16:46:05;;;;;;;0.90;0.90;;;;;;;;;;6285887;28;20413;-70
2023/11/23 16:49:11;;;;;;;0.90;0.90;;;;;;;;;;6281342;28;20745;-67
2023/11/23 16:52:15;;;;;;;1.98;0.93;;;;;;;;;;6280865;28;20291;-69
2023/11/23 16:55:19;;;;;;;0.98;0.98;;;;;;;;;;6280110;28;20291;-69
2023/11/23 16:58:22;;;;;;;0.80;0.80;;;;;;;;;;6271654;28;20287;-69
2023/11/23 17:01:27;;;;;;;1.00;1.00;;;;;;;;;;6278513;28;20366;-70
2023/11/23 17:04:32;;;;;;;1.13;1.13;;;;;;;;;;6279598;28;20307;-68
2023/11/23 17:07:36;;;;;;;1.20;1.17;;;;;;;;;;6280460;28;20299;-69
2023/11/23 17:10:40;;;;;;;1.02;0.85;;;;;;;;;;6280054;28;20298;-68
2023/11/23 17:13:44;;;;;;;0.90;0.90;;;;;;;;;;6279979;28;20311;-68
2023/11/23 17:16:49;;;;;;;6.13;1.00;;;;;;;;;;6250464;28;20233;-69
2023/11/23 17:19:54;;;;;;;1.48;0.95;;;;;;;;;;6287727;28;20302;-68
2023/11/23 17:23:01;;;;;;;0.90;0.90;;;;;;;;;;6279568;28;20303;-69
2023/11/23 17:26:08;;;;;;;1.17;1.15;;;;;;;;;;6280174;28;20287;-66
2023/11/23 17:29:13;;;;;;;1.20;1.20;;;;;;;;;;6252122;28;20228;-70
2023/11/23 17:32:17;;;;;;;2.28;1.00;;;;;;;;;;6278035;28;20309;-68
2023/11/23 17:35:24;;;;;;;0.90;0.90;;;;;;;;;;6282996;28;20253;-68
2023/11/23 17:38:28;;;;;;;1.40;1.30;;;;;;;;;;6279611;28;20417;-69
2023/11/23 17:41:33;;;;;;;0.90;0.90;;;;;;;;;;6279062;28;20318;-68
2023/11/23 17:44:36;;;;;;;1.00;1.00;;;;;;;;;;6269469;28;20307;-68
2023/11/23 17:47:44;;;;;;;0.80;0.80;;;;;;;;;;6276923;28;20294;-68
2023/11/23 17:50:50;;;;;;;0.90;0.90;;;;;;;;;;6287033;28;20432;-68
2023/11/23 17:53:54;;;;;;;0.80;0.80;;;;;;;;;;6276261;28;20302;-68
2023/11/23 17:56:58;;;;;;;0.90;0.90;;;;;;;;;;6286981;28;20486;-68
2023/11/23 18:00:05;;;;;;;0.90;0.90;;;;;;;;;;6277135;28;20606;-69
2023/11/23 18:03:17;;;;;;;1.70;0.82;;;;;;;;;;6277293;28;20298;-68
2023/11/23 18:06:22;;;;;;;2.08;1.30;;;;;;;;;;6286347;28;20314;-69
2023/11/23 18:09:26;;;;;;;0.90;0.90;;;;;;;;;;6278592;28;20306;-70
2023/11/23 18:12:30;;;;;;;0.80;0.80;;;;;;;;;;6279104;28;20318;-69
2023/11/23 18:15:34;;;;;;;0.80;0.80;;;;;;;;;;6279304;28;20290;-68
2023/11/23 18:18:37;;;;;;;0.85;0.85;;;;;;;;;;6284137;28;20299;-68
2023/11/23 18:21:43;;;;;;;1.88;1.02;;;;;;;;;;6278939;28;20291;-68
2023/11/23 18:24:48;;;;;;;1.55;1.20;;;;;;;;;;6279307;28;20565;-69
2023/11/23 18:27:52;;;;;;;1.27;0.80;;;;;;;;;;6278581;28;20291;-68